createdAt,value
2019-01-10T00:00:11.393Z,101613.35
2019-01-10T00:02:39.916Z,101622.57
2019-01-10T00:05:10.051Z,101630.91
2019-01-10T00:07:38.349Z,101622.66
2019-01-10T00:10:09.809Z,101626.09
2019-01-10T00:12:39.559Z,101623.41
2019-01-10T00:15:11.133Z,101625.17
2019-01-10T00:17:39.698Z,101624.80
2019-01-10T00:20:09.934Z,101626.69
2019-01-10T00:22:38.231Z,101625.15
2019-01-10T00:25:08.979Z,101636.50
2019-01-10T00:27:37.282Z,101640.98
2019-01-10T00:30:11.432Z,101640.20
2019-01-10T00:32:39.722Z,101645.39
2019-01-10T00:35:09.180Z,101638.02
2019-01-10T00:37:37.728Z,101647.39
2019-01-10T00:40:11.956Z,101644.61
2019-01-10T00:42:48.786Z,101649.67
2019-01-10T00:45:13.450Z,101653.86
2019-01-10T00:47:41.760Z,101648.53
2019-01-10T00:50:15.411Z,101648.40
2019-01-10T00:52:43.718Z,101649.47
2019-01-10T00:55:12.147Z,101654.10
2019-01-10T00:57:40.459Z,101659.45
2019-01-10T01:00:18.006Z,101658.94
2019-01-10T01:02:46.310Z,101652.82
2019-01-10T01:05:15.386Z,101657.88
2019-01-10T01:07:43.672Z,101663.31
2019-01-10T01:10:14.851Z,101662.80
2019-01-10T01:12:43.148Z,101662.34
2019-01-10T01:15:13.580Z,101672.07
2019-01-10T01:17:41.879Z,101673.90
2019-01-10T01:20:11.700Z,101677.74
2019-01-10T01:22:40.089Z,101685.02
2019-01-10T01:25:09.912Z,101682.80
2019-01-10T01:27:38.211Z,101678.90
2019-01-10T01:30:09.811Z,101676.68
2019-01-10T01:32:38.105Z,101681.88
2019-01-10T01:35:07.342Z,101682.25
2019-01-10T01:37:35.633Z,101684.70
2019-01-10T01:40:06.558Z,101685.31
2019-01-10T01:42:34.871Z,101693.80
2019-01-10T01:45:03.164Z,101696.86
2019-01-10T01:47:31.475Z,101700.76
2019-01-10T01:50:00.447Z,101711.23
2019-01-10T01:52:28.836Z,101718.34
2019-01-10T01:54:57.120Z,101714.72
2019-01-10T01:57:25.413Z,101714.89
2019-01-10T01:59:53.787Z,101717.78
2019-01-10T02:02:22.083Z,101712.67
2019-01-10T02:04:50.698Z,101711.84
2019-01-10T02:07:18.984Z,101715.73
2019-01-10T02:09:47.287Z,101726.83
2019-01-10T02:12:15.562Z,101719.35
2019-01-10T02:14:43.850Z,101724.55
2019-01-10T02:17:12.159Z,101729.88
2019-01-10T02:19:40.441Z,101731.56
2019-01-10T02:22:08.915Z,101734.53
2019-01-10T02:24:37.213Z,101731.56
2019-01-10T02:27:05.572Z,101734.86
2019-01-10T02:29:33.866Z,101739.45
2019-01-10T02:32:02.156Z,101740.61
2019-01-10T02:34:30.691Z,101742.14
2019-01-10T02:36:58.990Z,101740.38
2019-01-10T02:39:27.283Z,101746.33
2019-01-10T02:41:55.562Z,101749.34
2019-01-10T02:44:23.882Z,101744.89
2019-01-10T02:46:52.174Z,101746.52
2019-01-10T02:49:20.459Z,101747.77
2019-01-10T02:51:48.764Z,101760.38
2019-01-10T02:54:17.040Z,101759.08
2019-01-10T02:56:45.347Z,101756.86
2019-01-10T02:59:13.632Z,101757.97
2019-01-10T03:01:41.916Z,101754.67
2019-01-10T03:04:10.491Z,101757.45
2019-01-10T03:06:39.091Z,101758.05
2019-01-10T03:09:09.134Z,101753.78
2019-01-10T03:11:37.414Z,101752.80
2019-01-10T03:14:05.778Z,101744.69
2019-01-10T03:16:34.074Z,101756.16
2019-01-10T03:19:02.602Z,101760.52
2019-01-10T03:21:30.917Z,101755.41
2019-01-10T03:23:59.204Z,101753.27
2019-01-10T03:26:27.549Z,101752.94
2019-01-10T03:28:55.856Z,101744.17
2019-01-10T03:31:24.406Z,101741.44
2019-01-10T03:33:52.971Z,101744.22
2019-01-10T03:36:21.263Z,101740.28
2019-01-10T03:38:49.582Z,101745.71
2019-01-10T03:41:17.861Z,101749.28
2019-01-10T03:43:47.426Z,101739.48
2019-01-10T03:46:16.038Z,101744.03
2019-01-10T03:48:44.321Z,101748.45
2019-01-10T03:51:12.630Z,101752.67
2019-01-10T03:53:40.915Z,101752.45
2019-01-10T03:56:09.225Z,101755.56
2019-01-10T03:58:37.522Z,101753.05
2019-01-10T04:01:05.988Z,101758.84
2019-01-10T04:03:34.267Z,101759.48
2019-01-10T04:06:02.546Z,101759.63
2019-01-10T04:08:30.861Z,101758.59
2019-01-10T04:10:59.145Z,101761.11
2019-01-10T04:13:27.448Z,101762.73
2019-01-10T04:15:55.733Z,101772.75
2019-01-10T04:18:24.032Z,101768.39
2019-01-10T04:20:52.315Z,101762.65
2019-01-10T04:23:20.626Z,101763.11
2019-01-10T04:25:48.940Z,101770.66
2019-01-10T04:28:17.221Z,101774.64
2019-01-10T04:30:46.422Z,101774.78
2019-01-10T04:33:16.445Z,101778.22
2019-01-10T04:35:44.685Z,101775.38
2019-01-10T04:38:12.965Z,101775.09
2019-01-10T04:40:41.272Z,101778.10
2019-01-10T04:43:09.800Z,101780.30
2019-01-10T04:45:38.095Z,101784.98
2019-01-10T04:48:06.410Z,101777.09
2019-01-10T04:50:34.700Z,101777.64
2019-01-10T04:53:03.248Z,101777.31
2019-01-10T04:55:31.612Z,101770.82
2019-01-10T04:57:59.921Z,101777.45
2019-01-10T05:00:28.467Z,101780.97
2019-01-10T05:02:56.771Z,101785.23
2019-01-10T05:05:25.064Z,101789.98
2019-01-10T05:07:53.376Z,101787.08
2019-01-10T05:10:21.774Z,101782.73
2019-01-10T05:12:50.405Z,101779.53
2019-01-10T05:15:18.684Z,101776.94
2019-01-10T05:17:47.230Z,101772.58
2019-01-10T05:20:17.481Z,101770.31
2019-01-10T05:22:45.902Z,101772.45
2019-01-10T05:25:14.252Z,101777.78
2019-01-10T05:27:42.565Z,101776.61
2019-01-10T05:30:14.268Z,101780.89
2019-01-10T05:32:42.564Z,101784.41
2019-01-10T05:35:10.930Z,101782.64
2019-01-10T05:37:39.246Z,101785.19
2019-01-10T05:40:10.822Z,101781.30
2019-01-10T05:42:39.116Z,101775.82
2019-01-10T05:45:10.587Z,101776.83
2019-01-10T05:47:38.945Z,101776.50
2019-01-10T05:50:10.084Z,101776.28
2019-01-10T05:52:38.449Z,101767.39
2019-01-10T05:55:10.036Z,101772.83
2019-01-10T05:57:38.593Z,101777.31
2019-01-10T06:00:19.257Z,101770.47
2019-01-10T06:02:47.548Z,101777.80
2019-01-10T06:05:15.905Z,101785.05
2019-01-10T06:07:44.208Z,101795.27
2019-01-10T06:10:21.215Z,101797.91
2019-01-10T06:12:49.515Z,101793.77
2019-01-10T06:15:17.808Z,101800.26
2019-01-10T06:17:46.189Z,101795.14
2019-01-10T06:20:17.568Z,101791.96
2019-01-10T06:22:45.867Z,101803.97
2019-01-10T06:25:14.482Z,101816.55
2019-01-10T06:27:42.776Z,101817.47
2019-01-10T06:30:19.596Z,101823.87
2019-01-10T06:32:47.910Z,101823.45
2019-01-10T06:35:16.445Z,101828.95
2019-01-10T06:37:44.755Z,101834.09
2019-01-10T06:40:16.243Z,101834.93
2019-01-10T06:42:44.526Z,101834.93
2019-01-10T06:45:14.981Z,101839.54
2019-01-10T06:47:43.265Z,101846.41
2019-01-10T06:50:14.101Z,101837.19
2019-01-10T06:52:42.397Z,101844.78
2019-01-10T06:55:11.375Z,101845.70
2019-01-10T06:57:39.668Z,101853.02
2019-01-10T07:00:19.215Z,101851.34
2019-01-10T07:02:47.699Z,101848.30
2019-01-10T07:05:15.937Z,101852.64
2019-01-10T07:07:44.257Z,101861.98
2019-01-10T07:10:18.428Z,101870.11
2019-01-10T07:12:46.735Z,101867.00
2019-01-10T07:15:15.302Z,101873.42
2019-01-10T07:17:43.610Z,101872.45
2019-01-10T07:20:12.789Z,101866.88
2019-01-10T07:22:46.464Z,101862.91
2019-01-10T07:25:14.925Z,101869.14
2019-01-10T07:27:43.409Z,101871.61
2019-01-10T07:30:15.106Z,101872.77
2019-01-10T07:32:43.669Z,101872.23
2019-01-10T07:35:12.205Z,101872.64
2019-01-10T07:37:40.781Z,101884.72
2019-01-10T07:40:12.115Z,101884.58
2019-01-10T07:42:40.416Z,101890.36
2019-01-10T07:45:17.122Z,101882.73
2019-01-10T07:47:48.470Z,101887.41
2019-01-10T07:50:19.058Z,101886.45
2019-01-10T07:52:47.687Z,101889.80
2019-01-10T07:55:15.995Z,101890.97
2019-01-10T07:57:44.283Z,101889.08
2019-01-10T08:00:18.049Z,101892.84
2019-01-10T08:02:46.428Z,101893.63
2019-01-10T08:05:15.121Z,101897.45
2019-01-10T08:07:43.710Z,101894.00
2019-01-10T08:10:14.821Z,101900.45
2019-01-10T08:12:43.146Z,101905.48
2019-01-10T08:15:14.685Z,101905.19
2019-01-10T08:17:43.235Z,101917.41
2019-01-10T08:20:11.681Z,101907.98
2019-01-10T08:22:40.223Z,101911.87
2019-01-10T08:25:09.454Z,101916.23
2019-01-10T08:27:37.823Z,101924.41
2019-01-10T08:30:12.208Z,101930.48
2019-01-10T08:32:40.743Z,101926.96
2019-01-10T08:35:09.703Z,101929.61
2019-01-10T08:37:38.000Z,101938.33
2019-01-10T08:40:08.344Z,101933.86
2019-01-10T08:42:36.643Z,101935.75
2019-01-10T08:45:07.431Z,101938.00
2019-01-10T08:47:35.724Z,101942.25
2019-01-10T08:50:06.908Z,101936.41
2019-01-10T08:52:35.211Z,101921.41
2019-01-10T08:55:03.964Z,101923.80
2019-01-10T08:57:32.267Z,101926.73
2019-01-10T09:00:00.561Z,101927.77
2019-01-10T09:02:28.872Z,101927.55
2019-01-10T09:04:57.403Z,101930.91
2019-01-10T09:07:25.700Z,101932.16
2019-01-10T09:09:54.032Z,101925.91
2019-01-10T09:12:22.404Z,101927.73
2019-01-10T09:14:50.717Z,101930.30
2019-01-10T09:17:19.242Z,101931.58
2019-01-10T09:19:47.554Z,101941.95
2019-01-10T09:22:16.087Z,101939.83
2019-01-10T09:24:44.434Z,101944.67
2019-01-10T09:27:12.735Z,101944.02
2019-01-10T09:29:41.035Z,101943.27
2019-01-10T09:32:09.314Z,101949.09
2019-01-10T09:34:37.628Z,101948.39
2019-01-10T09:37:05.987Z,101952.14
2019-01-10T09:39:34.280Z,101955.59
2019-01-10T09:42:02.579Z,101964.84
2019-01-10T09:44:30.883Z,101963.63
2019-01-10T09:46:59.433Z,101962.55
2019-01-10T09:49:27.722Z,101957.68
2019-01-10T09:51:56.298Z,101972.08
2019-01-10T09:54:24.830Z,101969.70
2019-01-10T09:56:53.118Z,101969.19
2019-01-10T09:59:21.421Z,101977.53
2019-01-10T10:01:49.720Z,101973.46
2019-01-10T10:04:18.033Z,101980.62
2019-01-10T10:06:46.329Z,101977.50
2019-01-10T10:09:14.637Z,101980.95
2019-01-10T10:11:42.917Z,101986.15
2019-01-10T10:14:11.212Z,101981.56
2019-01-10T10:16:39.527Z,101986.39
2019-01-10T10:19:07.828Z,101978.96
2019-01-10T10:21:36.128Z,101975.52
2019-01-10T10:24:04.480Z,101981.39
2019-01-10T10:26:32.783Z,101976.74
2019-01-10T10:29:01.081Z,101979.77
2019-01-10T10:31:29.377Z,101980.41
2019-01-10T10:33:57.694Z,101976.77
2019-01-10T10:36:26.243Z,101977.46
2019-01-10T10:38:54.549Z,101974.73
2019-01-10T10:41:22.844Z,101974.75
2019-01-10T10:43:51.160Z,101977.49
2019-01-10T10:46:19.713Z,101972.69
2019-01-10T10:48:48.002Z,101974.44
2019-01-10T10:51:16.318Z,101976.44
2019-01-10T10:53:44.600Z,101984.32
2019-01-10T10:56:12.971Z,101980.88
2019-01-10T10:58:41.253Z,101983.03
2019-01-10T11:01:10.384Z,101983.95
2019-01-10T11:03:38.908Z,101983.73
2019-01-10T11:06:07.338Z,101980.12
2019-01-10T11:08:35.637Z,101981.25
2019-01-10T11:11:04.239Z,101974.36
2019-01-10T11:13:32.543Z,101978.57
2019-01-10T11:16:00.843Z,101971.35
2019-01-10T11:18:29.152Z,101969.96
2019-01-10T11:20:57.457Z,101975.48
2019-01-10T11:23:25.777Z,101967.81
2019-01-10T11:25:54.065Z,101967.35
2019-01-10T11:28:22.362Z,101973.73
2019-01-10T11:30:50.922Z,101972.76
2019-01-10T11:33:19.479Z,101971.61
2019-01-10T11:35:47.780Z,101974.81
2019-01-10T11:38:16.066Z,101966.93
2019-01-10T11:40:44.377Z,101965.31
2019-01-10T11:43:12.669Z,101972.28
2019-01-10T11:45:40.983Z,101964.41
2019-01-10T11:48:09.263Z,101957.33
2019-01-10T11:50:37.586Z,101959.19
2019-01-10T11:53:05.882Z,101960.49
2019-01-10T11:55:34.176Z,101953.05
2019-01-10T11:58:02.496Z,101956.03
2019-01-10T12:00:30.854Z,101954.50
2019-01-10T12:02:59.160Z,101953.52
2019-01-10T12:05:27.455Z,101954.26
2019-01-10T12:07:56.059Z,101951.66
2019-01-10T12:10:24.534Z,101952.72
2019-01-10T12:12:52.898Z,101949.59
2019-01-10T12:15:21.212Z,101949.13
2019-01-10T12:17:49.496Z,101949.91
2019-01-10T12:20:19.051Z,101941.47
2019-01-10T12:22:48.480Z,101936.87
2019-01-10T12:25:18.373Z,101935.80
2019-01-10T12:27:46.908Z,101935.89
2019-01-10T12:30:18.207Z,101933.95
2019-01-10T12:32:46.525Z,101934.05
2019-01-10T12:35:15.056Z,101940.00
2019-01-10T12:37:43.677Z,101932.04
2019-01-10T12:40:13.915Z,101924.91
2019-01-10T12:42:42.349Z,101919.62
2019-01-10T12:45:13.841Z,101924.92
2019-01-10T12:47:42.196Z,101922.86
2019-01-10T12:50:21.793Z,101918.02
2019-01-10T12:52:50.080Z,101923.23
2019-01-10T12:55:18.386Z,101921.00
2019-01-10T12:57:46.681Z,101921.00
2019-01-10T13:00:17.286Z,101918.92
2019-01-10T13:02:45.666Z,101929.52
2019-01-10T13:05:14.232Z,101926.13
2019-01-10T13:07:42.871Z,101926.62
2019-01-10T13:10:16.156Z,101932.67
2019-01-10T13:12:44.545Z,101935.13
2019-01-10T13:15:15.776Z,101931.78
2019-01-10T13:17:44.055Z,101930.10
2019-01-10T13:20:12.912Z,101930.66
2019-01-10T13:22:41.443Z,101924.30
2019-01-10T13:25:15.240Z,101929.35
2019-01-10T13:27:44.399Z,101932.11
2019-01-10T13:30:23.280Z,101930.80
2019-01-10T13:32:52.109Z,101928.75
2019-01-10T13:35:20.412Z,101924.38
2019-01-10T13:37:48.790Z,101921.77
2019-01-10T13:40:17.494Z,101920.69
2019-01-10T13:42:45.936Z,101919.70
2019-01-10T13:45:15.759Z,101926.98
2019-01-10T13:47:45.783Z,101926.36
2019-01-10T13:50:16.825Z,101936.34
2019-01-10T13:52:45.133Z,101936.43
2019-01-10T13:55:15.857Z,101939.88
2019-01-10T13:57:44.144Z,101941.79
2019-01-10T14:00:15.617Z,101938.49
2019-01-10T14:02:43.921Z,101944.92
2019-01-10T14:05:12.540Z,101936.43
2019-01-10T14:07:40.837Z,101933.48
2019-01-10T14:10:11.860Z,101931.52
2019-01-10T14:12:40.155Z,101932.13
2019-01-10T14:15:11.646Z,101938.48
2019-01-10T14:17:39.948Z,101933.73
2019-01-10T14:20:10.425Z,101929.59
2019-01-10T14:22:38.727Z,101924.45
2019-01-10T14:25:07.576Z,101923.55
2019-01-10T14:27:36.228Z,101916.02
2019-01-10T14:30:21.816Z,101922.32
2019-01-10T14:32:50.120Z,101920.03
2019-01-10T14:35:19.277Z,101918.63
2019-01-10T14:37:47.899Z,101917.70
2019-01-10T14:40:16.532Z,101913.27
2019-01-10T14:42:45.060Z,101916.25
2019-01-10T14:45:17.949Z,101912.44
2019-01-10T14:47:46.323Z,101916.40
2019-01-10T14:50:16.815Z,101917.95
2019-01-10T14:52:45.118Z,101904.23
2019-01-10T14:55:14.256Z,101913.26
2019-01-10T14:57:42.881Z,101917.26
2019-01-10T15:00:22.270Z,101918.19
2019-01-10T15:02:50.644Z,101925.23
2019-01-10T15:05:20.488Z,101921.99
2019-01-10T15:07:48.995Z,101921.70
2019-01-10T15:10:17.792Z,101923.06
2019-01-10T15:12:47.817Z,101928.83
2019-01-10T15:15:18.527Z,101929.27
2019-01-10T15:17:46.893Z,101928.89
2019-01-10T15:20:26.267Z,101931.87
2019-01-10T15:22:54.886Z,101930.75
2019-01-10T15:25:23.268Z,101932.66
2019-01-10T15:27:51.549Z,101930.48
2019-01-10T15:30:21.876Z,101927.60
2019-01-10T15:32:50.196Z,101925.61
2019-01-10T15:35:18.480Z,101929.72
2019-01-10T15:37:46.798Z,101929.41
2019-01-10T15:40:26.782Z,101936.98
2019-01-10T15:42:55.464Z,101928.80
2019-01-10T15:45:24.011Z,101927.87
2019-01-10T15:47:52.364Z,101935.68
2019-01-10T15:50:20.855Z,101938.28
2019-01-10T15:52:49.276Z,101934.98
2019-01-10T15:55:19.428Z,101940.80
2019-01-10T15:57:47.726Z,101939.18
2019-01-10T16:00:18.161Z,101936.72
2019-01-10T16:02:46.474Z,101934.67
2019-01-10T16:05:14.839Z,101938.72
2019-01-10T16:07:43.230Z,101930.35
2019-01-10T16:10:13.864Z,101930.41
2019-01-10T16:12:42.168Z,101939.14
2019-01-10T16:15:21.489Z,101936.16
2019-01-10T16:17:49.805Z,101934.77
2019-01-10T16:20:18.157Z,101930.73
2019-01-10T16:22:46.688Z,101926.36
2019-01-10T16:25:17.132Z,101920.17
2019-01-10T16:27:45.415Z,101928.67
2019-01-10T16:30:25.194Z,101930.77
2019-01-10T16:32:53.481Z,101937.27
2019-01-10T16:35:21.795Z,101931.08
2019-01-10T16:37:50.172Z,101928.39
2019-01-10T16:40:18.853Z,101936.89
2019-01-10T16:42:47.147Z,101934.30
2019-01-10T16:45:20.800Z,101939.45
2019-01-10T16:47:49.100Z,101933.45
2019-01-10T16:50:17.470Z,101935.97
2019-01-10T16:52:45.773Z,101938.14
2019-01-10T16:55:14.312Z,101929.03
2019-01-10T16:57:42.856Z,101941.13
2019-01-10T17:00:25.478Z,101932.06
2019-01-10T17:02:53.769Z,101937.36
2019-01-10T17:05:22.074Z,101940.48
2019-01-10T17:07:50.697Z,101935.42
2019-01-10T17:10:19.226Z,101939.33
2019-01-10T17:12:47.793Z,101936.34
2019-01-10T17:15:16.733Z,101936.89
2019-01-10T17:17:46.280Z,101934.02
2019-01-10T17:20:17.202Z,101933.88
2019-01-10T17:22:45.469Z,101935.78
2019-01-10T17:25:14.545Z,101937.61
2019-01-10T17:27:42.846Z,101938.20
2019-01-10T17:30:20.213Z,101936.20
2019-01-10T17:32:48.509Z,101939.19
2019-01-10T17:35:19.956Z,101936.77
2019-01-10T17:37:48.251Z,101933.01
2019-01-10T17:40:19.314Z,101935.79
2019-01-10T17:42:47.867Z,101936.16
2019-01-10T17:45:18.801Z,101934.48
2019-01-10T17:47:47.117Z,101946.52
2019-01-10T17:50:17.550Z,101944.30
2019-01-10T17:52:45.928Z,101942.39
2019-01-10T17:55:14.549Z,101942.70
2019-01-10T17:57:42.917Z,101941.59
2019-01-10T18:00:14.245Z,101940.14
2019-01-10T18:02:42.527Z,101937.12
2019-01-10T18:05:10.850Z,101937.67
2019-01-10T18:07:39.143Z,101939.03
2019-01-10T18:10:10.625Z,101944.33
2019-01-10T18:12:38.925Z,101938.72
2019-01-10T18:15:09.566Z,101934.81
2019-01-10T18:17:37.870Z,101939.64
2019-01-10T18:20:09.324Z,101942.70
2019-01-10T18:22:37.883Z,101939.27
2019-01-10T18:25:09.105Z,101934.90
2019-01-10T18:27:37.659Z,101933.97
2019-01-10T18:30:09.362Z,101943.03
2019-01-10T18:32:37.677Z,101941.50
2019-01-10T18:35:06.686Z,101937.45
2019-01-10T18:37:34.985Z,101938.37
2019-01-10T18:40:04.551Z,101939.91
2019-01-10T18:42:33.113Z,101933.62
2019-01-10T18:45:01.684Z,101933.10
2019-01-10T18:47:30.230Z,101934.41
2019-01-10T18:49:58.538Z,101936.23
2019-01-10T18:52:26.816Z,101936.60
2019-01-10T18:55:00.230Z,101940.22
2019-01-10T18:57:25.135Z,101935.16
2019-01-10T18:59:53.430Z,101937.21
2019-01-10T19:02:21.745Z,101936.31
2019-01-10T19:04:50.042Z,101935.30
2019-01-10T19:07:18.414Z,101940.08
2019-01-10T19:09:46.948Z,101934.41
2019-01-10T19:12:15.304Z,101926.13
2019-01-10T19:14:43.566Z,101929.42
2019-01-10T19:17:11.883Z,101932.41
2019-01-10T19:19:40.183Z,101930.95
2019-01-10T19:22:08.493Z,101931.80
2019-01-10T19:24:36.800Z,101931.73
2019-01-10T19:27:05.123Z,101931.73
2019-01-10T19:29:33.420Z,101930.06
2019-01-10T19:32:01.726Z,101934.86
2019-01-10T19:34:30.038Z,101937.78
2019-01-10T19:36:58.588Z,101934.66
2019-01-10T19:39:26.900Z,101940.62
2019-01-10T19:41:55.190Z,101937.55
2019-01-10T19:44:23.485Z,101937.02
2019-01-10T19:46:52.036Z,101942.30
2019-01-10T19:49:20.333Z,101934.88
2019-01-10T19:51:48.647Z,101934.88
2019-01-10T19:54:17.983Z,101935.72
2019-01-10T19:56:46.349Z,101938.01
2019-01-10T19:59:14.643Z,101935.72
2019-01-10T20:01:42.941Z,101932.74
2019-01-10T20:04:11.236Z,101938.63
2019-01-10T20:06:39.555Z,101938.71
2019-01-10T20:09:08.482Z,101944.20
2019-01-10T20:11:37.103Z,101946.38
2019-01-10T20:14:05.920Z,101945.08
2019-01-10T20:16:34.275Z,101936.80
2019-01-10T20:19:02.578Z,101941.60
2019-01-10T20:21:31.111Z,101942.06
2019-01-10T20:23:59.419Z,101941.38
2019-01-10T20:26:27.705Z,101942.36
2019-01-10T20:28:56.008Z,101948.44
2019-01-10T20:31:24.313Z,101947.52
2019-01-10T20:33:52.881Z,101951.80
2019-01-10T20:36:21.175Z,101946.44
2019-01-10T20:38:49.708Z,101947.34
2019-01-10T20:41:18.260Z,101942.45
2019-01-10T20:43:46.543Z,101941.00
2019-01-10T20:46:14.871Z,101935.70
2019-01-10T20:48:43.153Z,101943.08
2019-01-10T20:51:11.468Z,101951.80
2019-01-10T20:53:39.750Z,101946.53
2019-01-10T20:56:08.041Z,101946.06
2019-01-10T20:58:36.362Z,101949.88
2019-01-10T21:01:04.729Z,101946.75
2019-01-10T21:03:33.047Z,101946.75
2019-01-10T21:06:01.608Z,101947.59
2019-01-10T21:08:30.157Z,101948.37
2019-01-10T21:10:58.448Z,101941.86
2019-01-10T21:13:26.742Z,101945.77
2019-01-10T21:15:55.125Z,101935.72
2019-01-10T21:18:28.672Z,101940.47
2019-01-10T21:20:53.444Z,101937.86
2019-01-10T21:23:23.009Z,101937.40
2019-01-10T21:25:51.952Z,101934.80
2019-01-10T21:28:21.889Z,101939.16
2019-01-10T21:30:50.187Z,101927.91
2019-01-10T21:33:18.720Z,101941.30
2019-01-10T21:35:47.018Z,101942.61
2019-01-10T21:38:15.334Z,101953.44
2019-01-10T21:40:43.625Z,101951.27
2019-01-10T21:43:11.956Z,101948.66
2019-01-10T21:45:40.317Z,101944.38
2019-01-10T21:48:08.616Z,101952.13
2019-01-10T21:50:36.902Z,101949.13
2019-01-10T21:53:06.154Z,101946.05
2019-01-10T21:55:34.531Z,101944.00
2019-01-10T21:58:04.020Z,101937.48
2019-01-10T22:00:32.633Z,101943.53
2019-01-10T22:03:01.641Z,101939.25
2019-01-10T22:05:29.951Z,101941.86
2019-01-10T22:07:58.244Z,101933.73
2019-01-10T22:10:27.839Z,101928.89
2019-01-10T22:12:56.139Z,101924.15
2019-01-10T22:15:24.442Z,101917.63
2019-01-10T22:17:52.727Z,101933.41
2019-01-10T22:20:21.871Z,101924.91
2019-01-10T22:22:50.399Z,101923.84
2019-01-10T22:25:19.086Z,101925.52
2019-01-10T22:27:47.386Z,101927.89
2019-01-10T22:30:23.161Z,101926.66
2019-01-10T22:32:51.525Z,101931.69
2019-01-10T22:35:21.353Z,101920.20
2019-01-10T22:37:49.718Z,101925.09
2019-01-10T22:40:20.408Z,101921.70
2019-01-10T22:42:48.723Z,101918.91
2019-01-10T22:45:17.632Z,101927.46
2019-01-10T22:47:46.004Z,101923.27
2019-01-10T22:50:16.724Z,101916.01
2019-01-10T22:52:45.017Z,101916.53
2019-01-10T22:55:14.373Z,101914.16
2019-01-10T22:57:42.678Z,101916.99
2019-01-10T23:00:33.537Z,101917.22
2019-01-10T23:03:07.518Z,101906.29
2019-01-10T23:05:44.868Z,101902.53
2019-01-10T23:08:13.229Z,101901.60
2019-01-10T23:10:41.535Z,101899.46
2019-01-10T23:13:10.092Z,101890.12
2019-01-10T23:15:38.393Z,101898.13
2019-01-10T23:18:07.327Z,101900.22
2019-01-10T23:20:35.613Z,101896.08
2019-01-10T23:23:06.730Z,101887.11
2019-01-10T23:25:35.088Z,101893.39
2019-01-10T23:28:03.579Z,101893.77
2019-01-10T23:30:49.470Z,101892.72
2019-01-10T23:33:18.786Z,101891.85
2019-01-10T23:35:48.125Z,101896.53
2019-01-10T23:38:19.585Z,101890.12
2019-01-10T23:40:48.162Z,101890.03
2019-01-10T23:43:16.470Z,101891.16
2019-01-10T23:45:44.775Z,101888.94
2019-01-10T23:48:13.083Z,101877.16
2019-01-10T23:50:41.475Z,101877.77
2019-01-10T23:53:09.832Z,101877.16
2019-01-10T23:55:38.133Z,101871.87
2019-01-10T23:58:06.443Z,101876.00
